createdAt,value
2018-09-25T00:01:51.251Z,91.40
2018-09-25T00:04:24.783Z,91.50
2018-09-25T00:06:58.259Z,91.80
2018-09-25T00:09:31.826Z,92.00
2018-09-25T00:12:05.399Z,92.10
2018-09-25T00:14:38.980Z,92.10
2018-09-25T00:17:12.582Z,92.20
2018-09-25T00:19:46.212Z,92.20
2018-09-25T00:22:19.717Z,92.40
2018-09-25T00:24:53.162Z,92.20
2018-09-25T00:27:26.610Z,92.60
2018-09-25T00:30:00.231Z,92.60
2018-09-25T00:32:33.871Z,92.50
2018-09-25T00:35:07.359Z,92.80
2018-09-25T00:37:40.889Z,92.90
2018-09-25T00:40:14.512Z,93.00
2018-09-25T00:42:48.246Z,92.70
2018-09-25T00:45:21.915Z,92.80
2018-09-25T00:47:55.457Z,93.00
2018-09-25T00:50:28.982Z,93.00
2018-09-25T00:53:02.566Z,93.10
2018-09-25T00:55:36.003Z,93.00
2018-09-25T00:58:09.631Z,93.00
2018-09-25T01:00:43.160Z,93.10
2018-09-25T01:03:17.009Z,92.90
2018-09-25T01:05:50.721Z,93.10
2018-09-25T01:08:24.288Z,93.00
2018-09-25T01:10:57.963Z,93.00
2018-09-25T01:13:31.387Z,92.80
2018-09-25T01:16:04.875Z,93.10
2018-09-25T01:18:38.583Z,93.20
2018-09-25T01:21:12.355Z,93.20
2018-09-25T01:23:45.913Z,93.10
2018-09-25T01:26:19.467Z,93.30
2018-09-25T01:28:53.242Z,93.60
2018-09-25T01:31:26.829Z,93.70
2018-09-25T01:34:00.317Z,93.60
2018-09-25T01:36:34.325Z,93.70
2018-09-25T01:39:07.986Z,93.70
2018-09-25T01:41:41.646Z,93.90
2018-09-25T01:44:15.308Z,94.10
2018-09-25T01:46:48.820Z,94.20
2018-09-25T01:49:22.352Z,94.20
2018-09-25T01:51:55.876Z,94.10
2018-09-25T01:54:29.374Z,94.30
2018-09-25T01:57:02.978Z,94.30
2018-09-25T01:59:36.549Z,94.50
2018-09-25T02:02:10.060Z,95.20
2018-09-25T02:04:43.675Z,94.90
2018-09-25T02:07:17.758Z,95.10
2018-09-25T02:09:51.229Z,94.90
2018-09-25T02:12:24.900Z,94.90
2018-09-25T02:14:58.604Z,94.90
2018-09-25T02:17:32.083Z,95.20
2018-09-25T02:20:05.747Z,95.70
2018-09-25T02:22:39.424Z,95.20
2018-09-25T02:25:12.998Z,95.40
2018-09-25T02:27:46.657Z,95.30
2018-09-25T02:30:20.235Z,95.40
2018-09-25T02:32:53.710Z,95.20
2018-09-25T02:35:27.232Z,95.50
2018-09-25T02:38:00.567Z,95.40
2018-09-25T02:40:34.219Z,95.60
2018-09-25T02:43:07.755Z,95.20
2018-09-25T02:45:41.358Z,95.10
2018-09-25T02:48:15.036Z,94.90
2018-09-25T02:50:48.610Z,94.80
2018-09-25T02:53:22.388Z,95.00
2018-09-25T02:55:55.887Z,94.80
2018-09-25T02:58:29.549Z,94.90
2018-09-25T03:01:03.535Z,95.20
2018-09-25T03:03:37.037Z,95.60
2018-09-25T03:06:10.538Z,95.30
2018-09-25T03:08:44.237Z,95.40
2018-09-25T03:11:17.756Z,95.40
2018-09-25T03:13:51.402Z,95.40
2018-09-25T03:16:25.043Z,95.30
2018-09-25T03:18:58.740Z,95.30
2018-09-25T03:21:32.300Z,95.50
2018-09-25T03:24:06.075Z,95.50
2018-09-25T03:26:39.600Z,95.40
2018-09-25T03:29:19.807Z,95.40
2018-09-25T03:31:53.430Z,95.60
2018-09-25T03:34:26.979Z,95.40
2018-09-25T03:37:00.496Z,95.60
2018-09-25T03:39:34.211Z,95.70
2018-09-25T03:42:07.969Z,95.70
2018-09-25T03:44:41.543Z,95.80
2018-09-25T03:47:15.078Z,95.80
2018-09-25T03:49:48.555Z,95.90
2018-09-25T03:52:22.115Z,95.80
2018-09-25T03:54:55.637Z,95.70
2018-09-25T03:57:29.367Z,95.50
2018-09-25T04:00:02.895Z,95.80
2018-09-25T04:02:36.453Z,95.70
2018-09-25T04:05:10.046Z,96.00
2018-09-25T04:07:43.771Z,96.00
2018-09-25T04:10:17.209Z,96.10
2018-09-25T04:12:50.760Z,96.40
2018-09-25T04:15:24.178Z,96.20
2018-09-25T04:17:57.816Z,96.00
2018-09-25T04:20:31.404Z,96.20
2018-09-25T04:23:04.826Z,96.10
2018-09-25T04:25:38.480Z,96.20
2018-09-25T04:28:12.145Z,96.30
2018-09-25T04:30:45.616Z,96.50
2018-09-25T04:33:19.314Z,96.60
2018-09-25T04:35:52.994Z,96.70
2018-09-25T04:38:26.407Z,96.80
2018-09-25T04:40:59.894Z,96.80
2018-09-25T04:43:33.465Z,97.00
2018-09-25T04:46:07.054Z,97.00
2018-09-25T04:48:40.652Z,97.40
2018-09-25T04:51:14.103Z,97.20
2018-09-25T04:53:47.669Z,97.40
2018-09-25T04:56:21.358Z,97.60
2018-09-25T04:58:54.948Z,97.50
2018-09-25T05:01:28.668Z,97.50
2018-09-25T05:04:02.403Z,97.60
2018-09-25T05:06:35.982Z,97.50
2018-09-25T05:09:11.507Z,97.60
2018-09-25T05:11:45.388Z,97.70
2018-09-25T05:14:19.036Z,97.60
2018-09-25T05:16:52.878Z,97.60
2018-09-25T05:19:26.558Z,97.50
2018-09-25T05:22:00.239Z,97.50
2018-09-25T05:24:33.976Z,97.40
2018-09-25T05:27:07.626Z,97.30
2018-09-25T05:29:41.632Z,97.30
2018-09-25T05:32:15.179Z,97.20
2018-09-25T05:34:48.653Z,97.30
2018-09-25T05:37:22.329Z,97.30
2018-09-25T05:39:55.957Z,96.90
2018-09-25T05:42:29.542Z,97.20
2018-09-25T05:45:03.362Z,97.20
2018-09-25T05:47:36.926Z,97.00
2018-09-25T05:50:10.544Z,96.90
2018-09-25T05:52:44.283Z,96.20
2018-09-25T05:55:17.994Z,96.60
2018-09-25T05:57:51.578Z,96.50
2018-09-25T06:00:25.179Z,96.30
2018-09-25T06:02:58.880Z,96.30
2018-09-25T06:05:32.468Z,96.00
2018-09-25T06:08:05.968Z,96.40
2018-09-25T06:10:39.441Z,95.70
2018-09-25T06:13:13.068Z,95.60
2018-09-25T06:15:46.726Z,95.70
2018-09-25T06:18:20.167Z,95.60
2018-09-25T06:20:53.763Z,95.70
2018-09-25T06:23:27.404Z,95.50
2018-09-25T06:26:00.821Z,95.10
2018-09-25T06:28:34.568Z,94.80
2018-09-25T06:31:08.249Z,94.00
2018-09-25T06:33:41.885Z,93.30
2018-09-25T06:36:15.460Z,92.70
2018-09-25T06:38:48.874Z,92.50
2018-09-25T06:41:22.445Z,91.90
2018-09-25T06:43:56.008Z,90.90
2018-09-25T06:46:29.466Z,90.00
2018-09-25T06:49:02.981Z,87.50
2018-09-25T06:51:36.596Z,84.70
2018-09-25T06:54:10.323Z,83.70
2018-09-25T06:56:44.041Z,82.40
2018-09-25T06:59:17.723Z,81.30
2018-09-25T07:01:51.197Z,78.40
2018-09-25T07:04:24.970Z,76.80
2018-09-25T07:06:58.631Z,77.30
2018-09-25T07:09:32.104Z,79.90
2018-09-25T07:12:05.691Z,82.30
2018-09-25T07:14:39.228Z,84.10
2018-09-25T07:17:12.892Z,85.60
2018-09-25T07:19:46.458Z,86.20
2018-09-25T07:22:19.955Z,86.60
2018-09-25T07:24:53.538Z,87.30
2018-09-25T07:27:27.262Z,87.60
2018-09-25T07:30:00.857Z,86.90
2018-09-25T07:32:34.396Z,86.60
2018-09-25T07:35:08.039Z,86.80
2018-09-25T07:37:41.570Z,87.00
2018-09-25T07:40:15.226Z,86.50
2018-09-25T07:42:48.731Z,86.30
2018-09-25T07:45:22.323Z,86.60
2018-09-25T07:47:55.875Z,85.90
2018-09-25T07:50:29.495Z,86.40
2018-09-25T07:53:03.036Z,86.80
2018-09-25T07:55:36.702Z,86.50
2018-09-25T07:58:10.254Z,86.00
2018-09-25T08:00:43.862Z,85.00
2018-09-25T08:03:17.456Z,84.40
2018-09-25T08:05:51.086Z,83.50
2018-09-25T08:08:24.521Z,82.70
2018-09-25T08:10:58.122Z,82.90
2018-09-25T08:13:31.765Z,82.90
2018-09-25T08:16:05.421Z,82.70
2018-09-25T08:18:38.939Z,82.60
2018-09-25T08:21:12.604Z,82.50
2018-09-25T08:23:46.211Z,82.60
2018-09-25T08:26:19.854Z,82.30
2018-09-25T08:28:53.406Z,82.00
2018-09-25T08:31:26.985Z,81.90
2018-09-25T08:34:00.599Z,81.30
2018-09-25T08:36:34.136Z,80.80
2018-09-25T08:39:07.706Z,81.20
2018-09-25T08:41:41.398Z,79.50
2018-09-25T08:44:15.023Z,79.20
2018-09-25T08:46:48.736Z,78.30
2018-09-25T08:49:22.243Z,77.60
2018-09-25T08:51:55.744Z,77.50
2018-09-25T08:54:29.417Z,77.40
2018-09-25T08:57:03.029Z,76.40
2018-09-25T08:59:36.543Z,76.20
2018-09-25T09:02:10.215Z,76.00
2018-09-25T09:04:43.713Z,75.40
2018-09-25T09:07:17.104Z,74.90
2018-09-25T09:09:50.787Z,74.90
2018-09-25T09:12:24.507Z,74.60
2018-09-25T09:14:58.133Z,73.90
2018-09-25T09:17:31.661Z,72.20
2018-09-25T09:20:05.339Z,71.30
2018-09-25T09:22:38.986Z,70.30
2018-09-25T09:25:12.512Z,69.70
2018-09-25T09:27:46.343Z,69.80
2018-09-25T09:30:19.819Z,70.10
2018-09-25T09:32:53.454Z,69.50
2018-09-25T09:35:26.842Z,69.70
2018-09-25T09:38:00.334Z,68.60
2018-09-25T09:40:34.077Z,67.80
2018-09-25T09:43:07.836Z,67.70
2018-09-25T09:45:41.520Z,67.50
2018-09-25T09:48:15.267Z,67.30
2018-09-25T09:50:49.184Z,67.50
2018-09-25T09:53:22.795Z,66.40
2018-09-25T09:55:56.490Z,66.50
2018-09-25T09:58:30.054Z,64.00
2018-09-25T10:01:03.675Z,63.40
2018-09-25T10:03:37.212Z,59.50
2018-09-25T10:06:10.735Z,57.80
2018-09-25T10:08:44.505Z,59.10
2018-09-25T10:11:18.243Z,58.80
2018-09-25T10:13:51.742Z,58.30
2018-09-25T10:16:25.449Z,57.70
2018-09-25T10:18:58.997Z,56.20
2018-09-25T10:21:32.631Z,57.00
2018-09-25T10:24:06.264Z,57.70
2018-09-25T10:26:39.742Z,56.80
2018-09-25T10:29:13.448Z,56.90
2018-09-25T10:31:47.038Z,56.00
2018-09-25T10:34:20.703Z,53.20
2018-09-25T10:36:54.261Z,53.60
2018-09-25T10:39:27.762Z,55.60
2018-09-25T10:42:01.264Z,56.50
2018-09-25T10:44:35.064Z,57.00
2018-09-25T10:47:08.812Z,56.40
2018-09-25T10:49:42.544Z,56.00
2018-09-25T10:52:16.195Z,54.60
2018-09-25T10:54:49.975Z,54.00
2018-09-25T10:57:23.488Z,54.70
2018-09-25T10:59:56.967Z,55.50
2018-09-25T11:02:30.556Z,55.20
2018-09-25T11:05:04.299Z,55.70
2018-09-25T11:07:37.956Z,54.00
2018-09-25T11:10:11.723Z,52.70
2018-09-25T11:12:45.465Z,53.40
2018-09-25T11:15:18.937Z,54.60
2018-09-25T11:17:52.669Z,54.50
2018-09-25T11:20:26.380Z,56.40
2018-09-25T11:23:00.029Z,55.00
2018-09-25T11:25:33.511Z,54.30
2018-09-25T11:28:07.076Z,54.00
2018-09-25T11:30:40.539Z,54.10
2018-09-25T11:33:14.264Z,53.30
2018-09-25T11:35:47.985Z,53.20
2018-09-25T11:38:21.470Z,52.40
2018-09-25T11:40:55.010Z,52.60
2018-09-25T11:43:28.655Z,51.90
2018-09-25T11:46:02.177Z,51.00
2018-09-25T11:48:35.802Z,50.00
2018-09-25T11:51:09.282Z,49.80
2018-09-25T11:53:42.917Z,50.40
2018-09-25T11:56:16.469Z,50.30
2018-09-25T11:58:49.949Z,49.90
2018-09-25T12:01:23.478Z,49.80
2018-09-25T12:03:56.872Z,49.00
2018-09-25T12:06:30.332Z,47.90
2018-09-25T12:09:03.759Z,48.30
2018-09-25T12:11:37.239Z,48.50
2018-09-25T12:14:10.711Z,46.20
2018-09-25T12:16:44.303Z,46.50
2018-09-25T12:19:17.895Z,46.60
2018-09-25T12:21:51.376Z,46.90
2018-09-25T12:24:24.903Z,47.00
2018-09-25T12:26:58.353Z,46.30
2018-09-25T12:29:31.750Z,46.80
2018-09-25T12:32:05.265Z,46.50
2018-09-25T12:34:38.837Z,46.20
2018-09-25T12:37:12.595Z,47.40
2018-09-25T12:39:46.208Z,48.00
2018-09-25T12:42:19.922Z,48.30
2018-09-25T12:44:53.362Z,47.60
2018-09-25T12:47:26.952Z,47.00
2018-09-25T12:50:00.385Z,47.20
2018-09-25T12:52:34.218Z,46.50
2018-09-25T12:55:07.815Z,45.80
2018-09-25T12:57:41.411Z,45.30
2018-09-25T13:00:15.109Z,45.20
2018-09-25T13:02:48.619Z,45.50
2018-09-25T13:05:22.148Z,44.90
2018-09-25T13:07:55.688Z,45.10
2018-09-25T13:10:29.313Z,43.60
2018-09-25T13:13:02.888Z,44.50
2018-09-25T13:15:36.371Z,43.70
2018-09-25T13:18:09.955Z,43.80
2018-09-25T13:20:43.516Z,45.80
2018-09-25T13:23:17.171Z,45.10
2018-09-25T13:25:50.954Z,45.00
2018-09-25T13:28:24.550Z,44.90
2018-09-25T13:30:58.015Z,44.90
2018-09-25T13:33:31.602Z,43.80
2018-09-25T13:36:05.128Z,42.90
2018-09-25T13:38:38.930Z,43.30
2018-09-25T13:41:12.592Z,42.90
2018-09-25T13:43:46.078Z,41.90
2018-09-25T13:46:19.809Z,42.20
2018-09-25T13:48:53.301Z,41.20
2018-09-25T13:51:26.966Z,40.70
2018-09-25T13:54:00.593Z,40.30
2018-09-25T13:56:34.248Z,40.50
2018-09-25T13:59:07.868Z,40.40
2018-09-25T14:01:41.366Z,40.90
2018-09-25T14:04:15.096Z,41.80
2018-09-25T14:06:48.567Z,42.70
2018-09-25T14:09:22.266Z,43.40
2018-09-25T14:11:55.748Z,44.30
2018-09-25T14:14:29.437Z,44.60
2018-09-25T14:17:03.090Z,44.80
2018-09-25T14:19:36.768Z,45.00
2018-09-25T14:22:10.562Z,44.90
2018-09-25T14:24:44.208Z,45.30
2018-09-25T14:27:17.809Z,45.20
2018-09-25T14:29:51.463Z,45.80
2018-09-25T14:32:25.024Z,45.40
2018-09-25T14:34:58.848Z,45.50
2018-09-25T14:37:32.527Z,45.40
2018-09-25T14:40:05.909Z,45.20
2018-09-25T14:42:39.504Z,42.20
2018-09-25T14:45:13.213Z,42.20
2018-09-25T14:47:46.992Z,42.40
2018-09-25T14:50:20.510Z,41.80
2018-09-25T14:52:54.198Z,41.30
2018-09-25T14:55:27.973Z,41.90
2018-09-25T14:58:01.584Z,42.30
2018-09-25T15:00:35.057Z,42.50
2018-09-25T15:03:08.484Z,42.90
2018-09-25T15:05:42.009Z,43.30
2018-09-25T15:08:15.731Z,43.60
2018-09-25T15:10:49.467Z,44.00
2018-09-25T15:13:23.108Z,43.40
2018-09-25T15:15:56.765Z,43.80
2018-09-25T15:18:30.330Z,44.10
2018-09-25T15:21:03.930Z,44.10
2018-09-25T15:23:37.418Z,44.40
2018-09-25T15:26:11.006Z,44.30
2018-09-25T15:28:44.657Z,43.90
2018-09-25T15:31:18.148Z,43.70
2018-09-25T15:33:51.536Z,43.30
2018-09-25T15:36:25.208Z,43.40
2018-09-25T15:38:58.551Z,44.00
2018-09-25T15:41:32.191Z,42.90
2018-09-25T15:44:05.844Z,42.60
2018-09-25T15:46:39.505Z,42.70
2018-09-25T15:49:13.187Z,43.30
2018-09-25T15:51:46.787Z,43.00
2018-09-25T15:54:20.309Z,43.40
2018-09-25T15:56:53.989Z,43.10
2018-09-25T15:59:27.524Z,43.40
2018-09-25T16:02:01.170Z,43.70
2018-09-25T16:04:34.687Z,43.60
2018-09-25T16:07:08.147Z,44.00
2018-09-25T16:09:41.811Z,44.10
2018-09-25T16:12:15.326Z,44.40
2018-09-25T16:14:48.946Z,44.60
2018-09-25T16:17:22.514Z,44.90
2018-09-25T16:19:55.996Z,45.10
2018-09-25T16:22:29.552Z,45.80
2018-09-25T16:25:02.915Z,45.50
2018-09-25T16:27:36.711Z,46.20
2018-09-25T16:30:10.241Z,46.60
2018-09-25T16:32:43.735Z,47.30
2018-09-25T16:35:18.944Z,47.70
2018-09-25T16:37:52.576Z,48.40
2018-09-25T16:40:26.252Z,48.90
2018-09-25T16:42:59.923Z,47.50
2018-09-25T16:45:33.594Z,48.20
2018-09-25T16:48:07.336Z,49.10
2018-09-25T16:50:40.900Z,49.10
2018-09-25T16:53:14.468Z,48.30
2018-09-25T16:55:49.450Z,49.10
2018-09-25T16:58:22.982Z,49.40
2018-09-25T17:00:56.488Z,49.40
2018-09-25T17:03:30.076Z,50.20
2018-09-25T17:06:03.635Z,50.40
2018-09-25T17:08:37.360Z,50.50
2018-09-25T17:11:10.943Z,51.90
2018-09-25T17:16:49.015Z,51.80
2018-09-25T17:19:22.474Z,52.30
2018-09-25T17:21:56.242Z,52.40
2018-09-25T17:24:29.746Z,52.90
2018-09-25T17:27:03.348Z,52.80
2018-09-25T17:29:37.354Z,52.90
2018-09-25T17:32:11.122Z,53.20
2018-09-25T17:37:12.077Z,53.60
2018-09-25T17:39:45.676Z,54.40
2018-09-25T17:42:19.244Z,55.10
2018-09-25T17:44:52.977Z,55.40
2018-09-25T17:47:26.868Z,55.50
2018-09-25T17:50:00.363Z,55.50
2018-09-25T17:52:33.954Z,55.90
2018-09-25T17:55:07.605Z,56.00
2018-09-25T17:57:41.052Z,56.30
2018-09-25T18:00:14.580Z,56.80
2018-09-25T18:02:48.096Z,57.00
2018-09-25T18:05:21.745Z,57.10
2018-09-25T18:07:55.279Z,57.70
2018-09-25T18:10:28.842Z,57.00
2018-09-25T18:13:02.577Z,57.30
2018-09-25T18:15:36.151Z,57.50
2018-09-25T18:18:09.850Z,57.80
2018-09-25T18:20:43.447Z,57.90
2018-09-25T18:23:16.953Z,58.10
2018-09-25T18:25:50.624Z,58.30
2018-09-25T18:28:24.097Z,58.40
2018-09-25T18:30:57.620Z,58.60
2018-09-25T18:33:31.192Z,58.70
2018-09-25T18:36:04.722Z,58.90
2018-09-25T18:38:38.203Z,59.30
2018-09-25T18:41:11.888Z,59.40
2018-09-25T18:43:45.394Z,59.50
2018-09-25T18:46:18.786Z,59.90
2018-09-25T18:48:52.490Z,60.00
2018-09-25T18:51:25.962Z,60.30
2018-09-25T18:53:59.441Z,60.80
2018-09-25T18:56:33.376Z,61.20
2018-09-25T18:59:06.952Z,61.50
2018-09-25T19:01:40.675Z,61.60
2018-09-25T19:04:14.395Z,62.00
2018-09-25T19:06:48.326Z,62.20
2018-09-25T19:09:22.008Z,62.20
2018-09-25T19:11:55.618Z,62.30
2018-09-25T19:14:29.159Z,62.40
2018-09-25T19:17:02.918Z,62.50
2018-09-25T19:19:36.312Z,62.90
2018-09-25T19:22:09.946Z,63.20
2018-09-25T19:24:43.582Z,63.20
2018-09-25T19:27:17.195Z,63.00
2018-09-25T19:29:50.773Z,63.10
2018-09-25T19:32:24.459Z,63.40
2018-09-25T19:34:58.282Z,63.80
2018-09-25T19:37:32.067Z,64.00
2018-09-25T19:40:05.442Z,64.50
2018-09-25T19:42:39.093Z,64.80
2018-09-25T19:45:12.739Z,64.70
2018-09-25T19:47:46.189Z,64.70
2018-09-25T19:50:19.799Z,65.40
2018-09-25T19:52:53.339Z,65.70
2018-09-25T19:55:26.925Z,65.80
2018-09-25T19:58:00.458Z,65.60
2018-09-25T20:00:33.931Z,66.00
2018-09-25T20:03:07.913Z,65.80
2018-09-25T20:05:41.703Z,66.00
2018-09-25T20:08:15.298Z,65.90
2018-09-25T20:10:48.725Z,66.10
2018-09-25T20:13:22.286Z,66.40
2018-09-25T20:15:55.914Z,66.80
2018-09-25T20:18:29.380Z,66.60
2018-09-25T20:21:03.207Z,66.80
2018-09-25T20:23:36.782Z,66.60
2018-09-25T20:26:10.378Z,66.50
2018-09-25T20:28:43.953Z,67.20
2018-09-25T20:31:17.613Z,67.30
2018-09-25T20:33:51.280Z,67.50
2018-09-25T20:36:24.951Z,67.40
2018-09-25T20:38:58.515Z,67.90
2018-09-25T20:41:32.130Z,68.50
2018-09-25T20:44:05.674Z,69.10
2018-09-25T20:46:39.250Z,69.80
2018-09-25T20:49:12.871Z,69.80
2018-09-25T20:51:46.518Z,69.80
2018-09-25T20:54:19.971Z,70.00
2018-09-25T20:56:53.532Z,70.50
2018-09-25T20:59:27.028Z,70.40
2018-09-25T21:02:00.581Z,70.60
2018-09-25T21:04:33.950Z,70.90
2018-09-25T21:07:07.598Z,71.00
2018-09-25T21:09:41.196Z,71.90
2018-09-25T21:12:14.718Z,72.50
2018-09-25T21:14:48.403Z,72.60
2018-09-25T21:17:22.056Z,72.50
2018-09-25T21:19:55.663Z,72.80
2018-09-25T21:22:29.338Z,73.20
2018-09-25T21:25:02.815Z,73.90
2018-09-25T21:27:36.231Z,74.10
2018-09-25T21:30:09.867Z,74.40
2018-09-25T21:32:43.590Z,74.80
2018-09-25T21:35:17.310Z,74.30
2018-09-25T21:37:50.724Z,74.20
2018-09-25T21:40:24.255Z,74.50
2018-09-25T21:42:57.771Z,75.10
2018-09-25T21:45:31.395Z,74.90
2018-09-25T21:48:04.858Z,75.00
2018-09-25T21:50:38.312Z,75.20
2018-09-25T21:53:11.947Z,75.50
2018-09-25T21:55:45.643Z,75.60
2018-09-25T21:58:19.220Z,75.60
2018-09-25T22:00:52.760Z,75.50
2018-09-25T22:03:26.412Z,75.80
2018-09-25T22:05:59.916Z,76.10
2018-09-25T22:08:33.492Z,76.40
2018-09-25T22:11:07.153Z,76.50
2018-09-25T22:13:40.678Z,76.40
2018-09-25T22:16:14.447Z,76.10
2018-09-25T22:18:48.084Z,75.70
2018-09-25T22:21:21.654Z,76.40
2018-09-25T22:23:55.214Z,76.40
2018-09-25T22:26:28.645Z,76.20
2018-09-25T22:29:02.293Z,76.30
2018-09-25T22:31:35.890Z,76.50
2018-09-25T22:34:09.482Z,76.80
2018-09-25T22:36:42.855Z,77.10
2018-09-25T22:39:16.423Z,77.20
2018-09-25T22:41:50.051Z,77.90
2018-09-25T22:44:23.972Z,78.40
2018-09-25T22:46:57.620Z,78.80
2018-09-25T22:49:31.576Z,79.80
2018-09-25T22:52:05.231Z,78.60
2018-09-25T22:54:38.742Z,78.20
2018-09-25T22:57:12.525Z,78.00
2018-09-25T22:59:46.224Z,77.90
2018-09-25T23:02:19.852Z,77.60
2018-09-25T23:04:53.644Z,77.30
2018-09-25T23:07:27.209Z,77.60
2018-09-25T23:10:00.684Z,77.70
2018-09-25T23:12:34.254Z,78.50
2018-09-25T23:15:07.793Z,79.10
2018-09-25T23:17:41.308Z,79.10
2018-09-25T23:20:14.731Z,79.20
2018-09-25T23:22:48.268Z,79.20
2018-09-25T23:25:22.015Z,79.40
2018-09-25T23:27:55.562Z,79.90
2018-09-25T23:30:29.189Z,79.70
2018-09-25T23:33:02.636Z,80.10
2018-09-25T23:35:36.222Z,80.90
2018-09-25T23:38:10.072Z,81.50
2018-09-25T23:40:43.458Z,81.80
2018-09-25T23:43:19.748Z,82.70
2018-09-25T23:46:07.307Z,82.50
2018-09-25T23:48:48.190Z,82.80
2018-09-25T23:51:22.996Z,83.10
2018-09-25T23:53:53.805Z,83.10
2018-09-25T23:56:29.192Z,83.20
